sensor_id;sensor_type;location;lat;lon;timestamp;P1;durP1;ratioP1;P2;durP2;ratioP2
5555;SDS011;2801;50.972;7.856;2024-01-06T00:01:00;9.20;;;4.33;;
5555;SDS011;2801;50.972;7.856;2024-01-06T00:03:27;10.40;;;5.07;;
5555;SDS011;2801;50.972;7.856;2024-01-06T00:05:55;10.67;;;4.80;;
5555;SDS011;2801;50.972;7.856;2024-01-06T00:08:23;9.07;;;4.80;;
5555;SDS011;2801;50.972;7.856;2024-01-06T00:10:50;8.37;;;5.23;;
5555;SDS011;2801;50.972;7.856;2024-01-06T00:13:17;15.87;;;5.13;;
5555;SDS011;2801;50.972;7.856;2024-01-06T00:15:44;13.23;;;5.27;;
5555;SDS011;2801;50.972;7.856;2024-01-06T00:18:11;11.67;;;5.60;;
5555;SDS011;2801;50.972;7.856;2024-01-06T00:20:39;14.27;;;5.70;;
5555;SDS011;2801;50.972;7.856;2024-01-06T00:23:06;10.07;;;4.80;;
5555;SDS011;2801;50.972;7.856;2024-01-06T00:25:33;13.10;;;5.50;;
5555;SDS011;2801;50.972;7.856;2024-01-06T00:28:00;14.33;;;5.77;;
5555;SDS011;2801;50.972;7.856;2024-01-06T00:30:27;13.40;;;6.00;;
5555;SDS011;2801;50.972;7.856;2024-01-06T00:32:54;18.33;;;7.03;;
5555;SDS011;2801;50.972;7.856;2024-01-06T00:35:22;18.63;;;6.67;;
5555;SDS011;2801;50.972;7.856;2024-01-06T00:37:49;18.47;;;6.17;;
5555;SDS011;2801;50.972;7.856;2024-01-06T00:40:16;12.63;;;5.40;;
5555;SDS011;2801;50.972;7.856;2024-01-06T00:42:45;10.10;;;5.77;;
5555;SDS011;2801;50.972;7.856;2024-01-06T00:45:12;19.77;;;6.30;;
5555;SDS011;2801;50.972;7.856;2024-01-06T00:47:39;15.00;;;6.17;;
5555;SDS011;2801;50.972;7.856;2024-01-06T00:50:07;12.07;;;6.07;;
5555;SDS011;2801;50.972;7.856;2024-01-06T00:52:35;18.73;;;6.97;;
5555;SDS011;2801;50.972;7.856;2024-01-06T00:55:02;16.30;;;6.63;;
5555;SDS011;2801;50.972;7.856;2024-01-06T00:57:29;20.93;;;6.93;;
5555;SDS011;2801;50.972;7.856;2024-01-06T00:59:56;20.73;;;6.97;;
5555;SDS011;2801;50.972;7.856;2024-01-06T01:02:24;31.03;;;9.50;;
5555;SDS011;2801;50.972;7.856;2024-01-06T01:04:51;20.67;;;8.00;;
5555;SDS011;2801;50.972;7.856;2024-01-06T01:07:19;20.30;;;7.20;;
5555;SDS011;2801;50.972;7.856;2024-01-06T01:09:47;21.00;;;6.40;;
5555;SDS011;2801;50.972;7.856;2024-01-06T01:12:14;18.73;;;6.83;;
5555;SDS011;2801;50.972;7.856;2024-01-06T01:14:42;13.27;;;5.37;;
5555;SDS011;2801;50.972;7.856;2024-01-06T01:17:08;19.10;;;6.03;;
5555;SDS011;2801;50.972;7.856;2024-01-06T01:19:35;20.73;;;6.30;;
5555;SDS011;2801;50.972;7.856;2024-01-06T01:22:03;14.10;;;6.17;;
5555;SDS011;2801;50.972;7.856;2024-01-06T01:24:30;12.73;;;5.10;;
5555;SDS011;2801;50.972;7.856;2024-01-06T01:26:58;8.50;;;4.83;;
5555;SDS011;2801;50.972;7.856;2024-01-06T01:29:26;9.13;;;4.80;;
5555;SDS011;2801;50.972;7.856;2024-01-06T01:31:53;9.87;;;5.10;;
5555;SDS011;2801;50.972;7.856;2024-01-06T01:34:21;11.50;;;5.17;;
5555;SDS011;2801;50.972;7.856;2024-01-06T01:36:49;10.07;;;5.10;;
5555;SDS011;2801;50.972;7.856;2024-01-06T01:39:16;10.63;;;4.83;;
5555;SDS011;2801;50.972;7.856;2024-01-06T01:41:44;10.63;;;5.17;;
5555;SDS011;2801;50.972;7.856;2024-01-06T01:44:11;9.77;;;4.43;;
5555;SDS011;2801;50.972;7.856;2024-01-06T01:46:39;10.63;;;5.37;;
5555;SDS011;2801;50.972;7.856;2024-01-06T01:49:07;9.87;;;4.83;;
5555;SDS011;2801;50.972;7.856;2024-01-06T01:51:35;9.90;;;4.90;;
5555;SDS011;2801;50.972;7.856;2024-01-06T01:54:03;13.57;;;4.70;;
5555;SDS011;2801;50.972;7.856;2024-01-06T01:56:33;12.33;;;4.40;;
5555;SDS011;2801;50.972;7.856;2024-01-06T01:59:01;7.60;;;4.37;;
5555;SDS011;2801;50.972;7.856;2024-01-06T02:01:34;8.83;;;4.80;;
5555;SDS011;2801;50.972;7.856;2024-01-06T02:04:02;8.53;;;4.60;;
5555;SDS011;2801;50.972;7.856;2024-01-06T02:06:30;14.60;;;4.97;;
5555;SDS011;2801;50.972;7.856;2024-01-06T02:08:57;9.70;;;5.10;;
5555;SDS011;2801;50.972;7.856;2024-01-06T02:11:24;11.10;;;5.03;;
5555;SDS011;2801;50.972;7.856;2024-01-06T02:13:51;11.77;;;4.70;;
5555;SDS011;2801;50.972;7.856;2024-01-06T02:16:18;10.13;;;5.00;;
5555;SDS011;2801;50.972;7.856;2024-01-06T02:18:45;11.43;;;5.20;;
5555;SDS011;2801;50.972;7.856;2024-01-06T02:21:13;9.67;;;5.07;;
5555;SDS011;2801;50.972;7.856;2024-01-06T02:23:41;12.53;;;5.40;;
5555;SDS011;2801;50.972;7.856;2024-01-06T02:26:09;11.70;;;4.93;;
5555;SDS011;2801;50.972;7.856;2024-01-06T02:28:37;8.77;;;4.60;;
5555;SDS011;2801;50.972;7.856;2024-01-06T02:31:04;9.83;;;5.10;;
5555;SDS011;2801;50.972;7.856;2024-01-06T02:33:31;13.07;;;4.93;;
5555;SDS011;2801;50.972;7.856;2024-01-06T02:36:00;11.73;;;5.60;;
5555;SDS011;2801;50.972;7.856;2024-01-06T02:38:27;11.57;;;5.80;;
5555;SDS011;2801;50.972;7.856;2024-01-06T02:40:54;9.87;;;5.33;;
5555;SDS011;2801;50.972;7.856;2024-01-06T02:43:21;13.70;;;5.70;;
5555;SDS011;2801;50.972;7.856;2024-01-06T02:45:49;10.17;;;5.00;;
5555;SDS011;2801;50.972;7.856;2024-01-06T02:48:16;9.07;;;5.17;;
5555;SDS011;2801;50.972;7.856;2024-01-06T02:50:46;15.63;;;5.80;;
5555;SDS011;2801;50.972;7.856;2024-01-06T02:53:13;12.77;;;5.33;;
5555;SDS011;2801;50.972;7.856;2024-01-06T02:55:40;9.20;;;5.13;;
5555;SDS011;2801;50.972;7.856;2024-01-06T02:58:07;11.63;;;5.10;;
5555;SDS011;2801;50.972;7.856;2024-01-06T03:00:34;11.07;;;5.37;;
5555;SDS011;2801;50.972;7.856;2024-01-06T03:03:01;10.40;;;5.37;;
5555;SDS011;2801;50.972;7.856;2024-01-06T03:05:28;12.03;;;5.10;;
5555;SDS011;2801;50.972;7.856;2024-01-06T03:07:55;10.70;;;5.23;;
5555;SDS011;2801;50.972;7.856;2024-01-06T03:10:22;9.53;;;4.83;;
5555;SDS011;2801;50.972;7.856;2024-01-06T03:12:49;13.70;;;5.20;;
5555;SDS011;2801;50.972;7.856;2024-01-06T03:15:17;13.13;;;5.57;;
5555;SDS011;2801;50.972;7.856;2024-01-06T03:17:44;12.40;;;5.80;;
5555;SDS011;2801;50.972;7.856;2024-01-06T03:20:11;10.27;;;5.03;;
5555;SDS011;2801;50.972;7.856;2024-01-06T03:22:38;9.63;;;5.03;;
5555;SDS011;2801;50.972;7.856;2024-01-06T03:25:05;9.20;;;5.10;;
5555;SDS011;2801;50.972;7.856;2024-01-06T03:27:33;16.17;;;5.07;;
5555;SDS011;2801;50.972;7.856;2024-01-06T03:30:00;8.77;;;4.47;;
5555;SDS011;2801;50.972;7.856;2024-01-06T03:32:27;9.63;;;4.70;;
5555;SDS011;2801;50.972;7.856;2024-01-06T03:34:55;6.90;;;4.00;;
5555;SDS011;2801;50.972;7.856;2024-01-06T03:37:22;6.77;;;3.63;;
5555;SDS011;2801;50.972;7.856;2024-01-06T03:39:49;8.30;;;3.77;;
5555;SDS011;2801;50.972;7.856;2024-01-06T03:42:16;10.50;;;4.20;;
5555;SDS011;2801;50.972;7.856;2024-01-06T03:44:43;9.53;;;4.20;;
5555;SDS011;2801;50.972;7.856;2024-01-06T03:47:10;8.23;;;4.20;;
5555;SDS011;2801;50.972;7.856;2024-01-06T03:49:37;9.17;;;4.03;;
5555;SDS011;2801;50.972;7.856;2024-01-06T03:52:05;8.17;;;4.07;;
5555;SDS011;2801;50.972;7.856;2024-01-06T03:54:32;9.13;;;4.60;;
5555;SDS011;2801;50.972;7.856;2024-01-06T03:56:59;10.57;;;4.80;;
5555;SDS011;2801;50.972;7.856;2024-01-06T03:59:26;12.90;;;5.13;;
5555;SDS011;2801;50.972;7.856;2024-01-06T04:01:53;9.97;;;4.97;;
5555;SDS011;2801;50.972;7.856;2024-01-06T04:04:20;10.53;;;4.80;;
5555;SDS011;2801;50.972;7.856;2024-01-06T04:06:47;11.27;;;5.30;;
5555;SDS011;2801;50.972;7.856;2024-01-06T04:09:14;14.43;;;5.77;;
5555;SDS011;2801;50.972;7.856;2024-01-06T04:11:44;11.83;;;5.90;;
5555;SDS011;2801;50.972;7.856;2024-01-06T04:14:11;11.50;;;5.17;;
5555;SDS011;2801;50.972;7.856;2024-01-06T04:16:38;12.60;;;5.90;;
5555;SDS011;2801;50.972;7.856;2024-01-06T04:19:05;11.37;;;5.80;;
5555;SDS011;2801;50.972;7.856;2024-01-06T04:21:34;11.77;;;6.20;;
5555;SDS011;2801;50.972;7.856;2024-01-06T04:24:01;21.40;;;6.60;;
5555;SDS011;2801;50.972;7.856;2024-01-06T04:26:28;12.10;;;6.27;;
5555;SDS011;2801;50.972;7.856;2024-01-06T04:28:56;13.27;;;6.30;;
5555;SDS011;2801;50.972;7.856;2024-01-06T04:31:23;14.63;;;6.77;;
5555;SDS011;2801;50.972;7.856;2024-01-06T04:33:50;15.03;;;6.57;;
5555;SDS011;2801;50.972;7.856;2024-01-06T04:36:17;12.47;;;6.33;;
5555;SDS011;2801;50.972;7.856;2024-01-06T04:38:44;16.17;;;6.33;;
5555;SDS011;2801;50.972;7.856;2024-01-06T04:41:12;12.33;;;6.10;;
5555;SDS011;2801;50.972;7.856;2024-01-06T04:43:39;14.60;;;6.40;;
5555;SDS011;2801;50.972;7.856;2024-01-06T04:46:06;20.00;;;7.30;;
5555;SDS011;2801;50.972;7.856;2024-01-06T04:48:33;14.23;;;6.77;;
5555;SDS011;2801;50.972;7.856;2024-01-06T04:51:00;18.53;;;7.60;;
5555;SDS011;2801;50.972;7.856;2024-01-06T04:53:29;14.43;;;6.63;;
5555;SDS011;2801;50.972;7.856;2024-01-06T04:55:56;19.73;;;7.53;;
5555;SDS011;2801;50.972;7.856;2024-01-06T04:58:24;21.07;;;7.50;;
5555;SDS011;2801;50.972;7.856;2024-01-06T05:00:51;19.07;;;6.83;;
5555;SDS011;2801;50.972;7.856;2024-01-06T05:03:19;19.47;;;6.67;;
5555;SDS011;2801;50.972;7.856;2024-01-06T05:05:46;16.83;;;6.50;;
5555;SDS011;2801;50.972;7.856;2024-01-06T05:08:13;18.83;;;6.43;;
5555;SDS011;2801;50.972;7.856;2024-01-06T05:10:40;9.83;;;4.47;;
5555;SDS011;2801;50.972;7.856;2024-01-06T05:13:07;15.30;;;5.50;;
5555;SDS011;2801;50.972;7.856;2024-01-06T05:15:34;13.37;;;4.97;;
5555;SDS011;2801;50.972;7.856;2024-01-06T05:18:01;13.87;;;5.10;;
5555;SDS011;2801;50.972;7.856;2024-01-06T05:20:29;13.07;;;4.60;;
5555;SDS011;2801;50.972;7.856;2024-01-06T05:22:56;11.03;;;4.47;;
5555;SDS011;2801;50.972;7.856;2024-01-06T05:25:23;15.50;;;5.20;;
5555;SDS011;2801;50.972;7.856;2024-01-06T05:27:50;15.73;;;5.83;;
5555;SDS011;2801;50.972;7.856;2024-01-06T05:30:17;16.77;;;5.90;;
5555;SDS011;2801;50.972;7.856;2024-01-06T05:32:45;14.70;;;6.10;;
5555;SDS011;2801;50.972;7.856;2024-01-06T05:35:12;13.33;;;5.23;;
5555;SDS011;2801;50.972;7.856;2024-01-06T05:37:40;10.50;;;4.73;;
5555;SDS011;2801;50.972;7.856;2024-01-06T05:40:07;14.90;;;4.60;;
5555;SDS011;2801;50.972;7.856;2024-01-06T05:42:35;11.27;;;4.30;;
5555;SDS011;2801;50.972;7.856;2024-01-06T05:45:02;11.33;;;4.40;;
5555;SDS011;2801;50.972;7.856;2024-01-06T05:47:30;13.93;;;5.33;;
5555;SDS011;2801;50.972;7.856;2024-01-06T05:49:57;14.93;;;4.93;;
5555;SDS011;2801;50.972;7.856;2024-01-06T05:52:28;20.93;;;5.60;;
5555;SDS011;2801;50.972;7.856;2024-01-06T05:54:55;15.83;;;5.37;;
5555;SDS011;2801;50.972;7.856;2024-01-06T05:57:22;17.13;;;5.63;;
5555;SDS011;2801;50.972;7.856;2024-01-06T05:59:50;17.27;;;5.83;;
5555;SDS011;2801;50.972;7.856;2024-01-06T06:02:17;16.73;;;5.60;;
5555;SDS011;2801;50.972;7.856;2024-01-06T06:04:44;15.10;;;5.60;;
5555;SDS011;2801;50.972;7.856;2024-01-06T06:07:12;16.03;;;5.27;;
5555;SDS011;2801;50.972;7.856;2024-01-06T06:09:39;14.67;;;5.20;;
5555;SDS011;2801;50.972;7.856;2024-01-06T06:12:07;10.63;;;3.80;;
5555;SDS011;2801;50.972;7.856;2024-01-06T06:14:34;11.10;;;4.70;;
5555;SDS011;2801;50.972;7.856;2024-01-06T06:17:01;9.47;;;4.37;;
5555;SDS011;2801;50.972;7.856;2024-01-06T06:19:29;10.53;;;3.80;;
5555;SDS011;2801;50.972;7.856;2024-01-06T06:21:56;7.53;;;3.93;;
5555;SDS011;2801;50.972;7.856;2024-01-06T06:24:23;8.40;;;3.60;;
5555;SDS011;2801;50.972;7.856;2024-01-06T06:26:50;6.93;;;3.60;;
5555;SDS011;2801;50.972;7.856;2024-01-06T06:29:17;9.87;;;4.30;;
5555;SDS011;2801;50.972;7.856;2024-01-06T06:31:47;9.63;;;4.10;;
5555;SDS011;2801;50.972;7.856;2024-01-06T06:34:15;7.17;;;3.90;;
5555;SDS011;2801;50.972;7.856;2024-01-06T06:36:43;8.87;;;4.97;;
5555;SDS011;2801;50.972;7.856;2024-01-06T06:39:10;15.30;;;4.17;;
5555;SDS011;2801;50.972;7.856;2024-01-06T06:41:37;11.70;;;4.10;;
5555;SDS011;2801;50.972;7.856;2024-01-06T06:44:04;10.63;;;4.27;;
5555;SDS011;2801;50.972;7.856;2024-01-06T06:46:31;13.60;;;4.10;;
5555;SDS011;2801;50.972;7.856;2024-01-06T06:48:58;13.97;;;4.27;;
5555;SDS011;2801;50.972;7.856;2024-01-06T06:51:25;10.93;;;4.90;;
5555;SDS011;2801;50.972;7.856;2024-01-06T06:53:54;10.93;;;4.80;;
5555;SDS011;2801;50.972;7.856;2024-01-06T06:56:21;15.10;;;5.00;;
5555;SDS011;2801;50.972;7.856;2024-01-06T06:58:48;10.90;;;5.27;;
5555;SDS011;2801;50.972;7.856;2024-01-06T07:01:16;9.33;;;4.73;;
5555;SDS011;2801;50.972;7.856;2024-01-06T07:03:43;12.00;;;4.60;;
5555;SDS011;2801;50.972;7.856;2024-01-06T07:06:13;12.87;;;4.80;;
5555;SDS011;2801;50.972;7.856;2024-01-06T07:08:41;8.73;;;3.80;;
5555;SDS011;2801;50.972;7.856;2024-01-06T07:11:08;9.43;;;4.30;;
5555;SDS011;2801;50.972;7.856;2024-01-06T07:13:38;10.13;;;4.10;;
5555;SDS011;2801;50.972;7.856;2024-01-06T07:16:05;6.80;;;2.77;;
5555;SDS011;2801;50.972;7.856;2024-01-06T07:18:44;5.10;;;2.90;;
5555;SDS011;2801;50.972;7.856;2024-01-06T07:21:12;5.37;;;3.07;;
5555;SDS011;2801;50.972;7.856;2024-01-06T07:23:40;4.63;;;2.83;;
5555;SDS011;2801;50.972;7.856;2024-01-06T07:26:07;6.83;;;3.33;;
5555;SDS011;2801;50.972;7.856;2024-01-06T07:28:34;6.40;;;3.47;;
5555;SDS011;2801;50.972;7.856;2024-01-06T07:31:02;4.13;;;2.57;;
5555;SDS011;2801;50.972;7.856;2024-01-06T07:33:31;8.73;;;3.17;;
5555;SDS011;2801;50.972;7.856;2024-01-06T07:35:59;5.30;;;2.70;;
5555;SDS011;2801;50.972;7.856;2024-01-06T07:38:27;5.17;;;2.60;;
5555;SDS011;2801;50.972;7.856;2024-01-06T07:40:54;4.43;;;2.80;;
5555;SDS011;2801;50.972;7.856;2024-01-06T07:43:21;5.20;;;2.60;;
5555;SDS011;2801;50.972;7.856;2024-01-06T07:45:48;5.30;;;2.87;;
5555;SDS011;2801;50.972;7.856;2024-01-06T07:48:17;5.23;;;2.20;;
5555;SDS011;2801;50.972;7.856;2024-01-06T07:50:44;5.60;;;2.50;;
5555;SDS011;2801;50.972;7.856;2024-01-06T07:53:12;6.27;;;2.53;;
5555;SDS011;2801;50.972;7.856;2024-01-06T07:55:40;3.70;;;2.30;;
5555;SDS011;2801;50.972;7.856;2024-01-06T07:58:07;3.37;;;2.13;;
5555;SDS011;2801;50.972;7.856;2024-01-06T08:00:34;4.00;;;2.00;;
5555;SDS011;2801;50.972;7.856;2024-01-06T08:03:02;4.73;;;2.30;;
5555;SDS011;2801;50.972;7.856;2024-01-06T08:05:32;5.07;;;2.27;;
5555;SDS011;2801;50.972;7.856;2024-01-06T08:07:59;4.33;;;2.40;;
5555;SDS011;2801;50.972;7.856;2024-01-06T08:10:28;5.87;;;2.20;;
5555;SDS011;2801;50.972;7.856;2024-01-06T08:12:55;5.20;;;2.30;;
5555;SDS011;2801;50.972;7.856;2024-01-06T08:15:23;3.83;;;2.10;;
5555;SDS011;2801;50.972;7.856;2024-01-06T08:17:50;4.10;;;2.40;;
5555;SDS011;2801;50.972;7.856;2024-01-06T08:20:17;7.40;;;1.90;;
5555;SDS011;2801;50.972;7.856;2024-01-06T08:22:44;4.10;;;2.07;;
5555;SDS011;2801;50.972;7.856;2024-01-06T08:25:11;3.90;;;2.30;;
5555;SDS011;2801;50.972;7.856;2024-01-06T08:27:39;5.03;;;2.50;;
5555;SDS011;2801;50.972;7.856;2024-01-06T08:30:07;4.90;;;2.10;;
5555;SDS011;2801;50.972;7.856;2024-01-06T08:32:35;4.90;;;2.03;;
5555;SDS011;2801;50.972;7.856;2024-01-06T08:35:02;4.30;;;1.90;;
5555;SDS011;2801;50.972;7.856;2024-01-06T08:37:30;6.70;;;2.30;;
5555;SDS011;2801;50.972;7.856;2024-01-06T08:39:57;4.73;;;2.40;;
5555;SDS011;2801;50.972;7.856;2024-01-06T08:42:24;6.40;;;2.30;;
5555;SDS011;2801;50.972;7.856;2024-01-06T08:44:52;6.20;;;2.33;;
5555;SDS011;2801;50.972;7.856;2024-01-06T08:47:19;5.70;;;2.50;;
5555;SDS011;2801;50.972;7.856;2024-01-06T08:49:46;7.60;;;3.57;;
5555;SDS011;2801;50.972;7.856;2024-01-06T08:52:14;10.77;;;4.90;;
5555;SDS011;2801;50.972;7.856;2024-01-06T08:54:41;13.97;;;5.20;;
5555;SDS011;2801;50.972;7.856;2024-01-06T08:57:08;13.90;;;6.07;;
5555;SDS011;2801;50.972;7.856;2024-01-06T08:59:35;12.20;;;5.20;;
5555;SDS011;2801;50.972;7.856;2024-01-06T09:02:02;11.07;;;4.63;;
5555;SDS011;2801;50.972;7.856;2024-01-06T09:04:30;16.10;;;6.23;;
5555;SDS011;2801;50.972;7.856;2024-01-06T09:06:57;12.43;;;5.17;;
5555;SDS011;2801;50.972;7.856;2024-01-06T09:09:25;10.37;;;4.23;;
5555;SDS011;2801;50.972;7.856;2024-01-06T09:11:54;9.17;;;4.13;;
5555;SDS011;2801;50.972;7.856;2024-01-06T09:14:21;9.27;;;3.90;;
5555;SDS011;2801;50.972;7.856;2024-01-06T09:16:48;7.33;;;3.60;;
5555;SDS011;2801;50.972;7.856;2024-01-06T09:19:15;7.33;;;3.37;;
5555;SDS011;2801;50.972;7.856;2024-01-06T09:21:42;8.57;;;3.53;;
5555;SDS011;2801;50.972;7.856;2024-01-06T09:24:10;6.20;;;3.40;;
5555;SDS011;2801;50.972;7.856;2024-01-06T09:26:37;7.60;;;3.67;;
5555;SDS011;2801;50.972;7.856;2024-01-06T09:29:04;8.93;;;4.03;;
5555;SDS011;2801;50.972;7.856;2024-01-06T09:31:32;7.87;;;3.43;;
5555;SDS011;2801;50.972;7.856;2024-01-06T09:34:02;8.73;;;4.10;;
5555;SDS011;2801;50.972;7.856;2024-01-06T09:36:32;7.27;;;3.70;;
5555;SDS011;2801;50.972;7.856;2024-01-06T09:38:59;10.20;;;4.50;;
5555;SDS011;2801;50.972;7.856;2024-01-06T09:41:26;7.70;;;4.00;;
5555;SDS011;2801;50.972;7.856;2024-01-06T09:43:54;9.23;;;4.10;;
5555;SDS011;2801;50.972;7.856;2024-01-06T09:46:23;9.57;;;4.37;;
5555;SDS011;2801;50.972;7.856;2024-01-06T09:48:53;8.40;;;4.20;;
5555;SDS011;2801;50.972;7.856;2024-01-06T09:51:25;8.53;;;4.40;;
5555;SDS011;2801;50.972;7.856;2024-01-06T09:53:57;7.97;;;3.80;;
5555;SDS011;2801;50.972;7.856;2024-01-06T09:56:27;12.83;;;4.10;;
5555;SDS011;2801;50.972;7.856;2024-01-06T09:58:56;7.97;;;4.20;;
5555;SDS011;2801;50.972;7.856;2024-01-06T10:01:24;8.30;;;4.20;;
5555;SDS011;2801;50.972;7.856;2024-01-06T10:03:51;7.83;;;4.43;;
5555;SDS011;2801;50.972;7.856;2024-01-06T10:06:18;10.70;;;5.40;;
5555;SDS011;2801;50.972;7.856;2024-01-06T10:08:50;12.43;;;5.87;;
5555;SDS011;2801;50.972;7.856;2024-01-06T10:11:19;13.37;;;6.27;;
5555;SDS011;2801;50.972;7.856;2024-01-06T10:13:49;12.37;;;6.07;;
5555;SDS011;2801;50.972;7.856;2024-01-06T10:16:18;10.50;;;5.40;;
5555;SDS011;2801;50.972;7.856;2024-01-06T10:18:46;12.87;;;6.07;;
5555;SDS011;2801;50.972;7.856;2024-01-06T10:21:20;13.93;;;7.00;;
5555;SDS011;2801;50.972;7.856;2024-01-06T10:23:53;13.47;;;7.10;;
5555;SDS011;2801;50.972;7.856;2024-01-06T10:26:21;12.77;;;6.63;;
5555;SDS011;2801;50.972;7.856;2024-01-06T10:28:49;15.27;;;8.20;;
5555;SDS011;2801;50.972;7.856;2024-01-06T10:31:17;14.77;;;6.93;;
5555;SDS011;2801;50.972;7.856;2024-01-06T10:33:45;10.73;;;5.83;;
5555;SDS011;2801;50.972;7.856;2024-01-06T10:36:14;11.33;;;6.10;;
5555;SDS011;2801;50.972;7.856;2024-01-06T10:38:42;16.77;;;7.60;;
5555;SDS011;2801;50.972;7.856;2024-01-06T10:41:11;13.30;;;7.43;;
5555;SDS011;2801;50.972;7.856;2024-01-06T10:43:40;14.60;;;7.40;;
5555;SDS011;2801;50.972;7.856;2024-01-06T10:46:10;15.17;;;7.10;;
5555;SDS011;2801;50.972;7.856;2024-01-06T10:48:38;13.00;;;7.10;;
5555;SDS011;2801;50.972;7.856;2024-01-06T10:51:10;15.50;;;7.30;;
5555;SDS011;2801;50.972;7.856;2024-01-06T10:53:40;15.40;;;7.37;;
5555;SDS011;2801;50.972;7.856;2024-01-06T10:56:09;13.77;;;6.90;;
5555;SDS011;2801;50.972;7.856;2024-01-06T10:58:48;16.27;;;7.13;;
5555;SDS011;2801;50.972;7.856;2024-01-06T11:01:19;19.20;;;8.80;;
5555;SDS011;2801;50.972;7.856;2024-01-06T11:03:53;19.83;;;10.87;;
5555;SDS011;2801;50.972;7.856;2024-01-06T11:06:22;15.30;;;7.17;;
5555;SDS011;2801;50.972;7.856;2024-01-06T11:08:54;15.57;;;6.57;;
5555;SDS011;2801;50.972;7.856;2024-01-06T11:11:49;15.07;;;7.03;;
5555;SDS011;2801;50.972;7.856;2024-01-06T11:14:18;14.33;;;7.00;;
5555;SDS011;2801;50.972;7.856;2024-01-06T11:16:46;16.17;;;7.20;;
5555;SDS011;2801;50.972;7.856;2024-01-06T11:19:59;15.30;;;7.33;;
5555;SDS011;2801;50.972;7.856;2024-01-06T11:25:11;15.30;;;7.27;;
5555;SDS011;2801;50.972;7.856;2024-01-06T11:27:49;15.10;;;6.70;;
5555;SDS011;2801;50.972;7.856;2024-01-06T11:30:21;17.23;;;7.53;;
5555;SDS011;2801;50.972;7.856;2024-01-06T11:32:52;13.47;;;6.37;;
5555;SDS011;2801;50.972;7.856;2024-01-06T11:35:21;15.23;;;6.93;;
5555;SDS011;2801;50.972;7.856;2024-01-06T11:37:51;13.73;;;6.60;;
5555;SDS011;2801;50.972;7.856;2024-01-06T11:42:57;16.40;;;6.63;;
5555;SDS011;2801;50.972;7.856;2024-01-06T11:45:35;13.37;;;5.50;;
5555;SDS011;2801;50.972;7.856;2024-01-06T11:48:04;15.93;;;6.80;;
5555;SDS011;2801;50.972;7.856;2024-01-06T11:50:35;11.17;;;5.60;;
5555;SDS011;2801;50.972;7.856;2024-01-06T11:53:04;13.33;;;6.23;;
5555;SDS011;2801;50.972;7.856;2024-01-06T11:55:34;15.07;;;6.23;;
5555;SDS011;2801;50.972;7.856;2024-01-06T11:58:01;17.70;;;6.63;;
5555;SDS011;2801;50.972;7.856;2024-01-06T12:00:30;13.50;;;5.77;;
5555;SDS011;2801;50.972;7.856;2024-01-06T12:03:03;12.27;;;6.23;;
5555;SDS011;2801;50.972;7.856;2024-01-06T12:05:30;14.03;;;6.47;;
5555;SDS011;2801;50.972;7.856;2024-01-06T12:08:01;15.27;;;6.83;;
5555;SDS011;2801;50.972;7.856;2024-01-06T12:10:34;14.97;;;7.00;;
5555;SDS011;2801;50.972;7.856;2024-01-06T12:13:02;13.40;;;6.07;;
5555;SDS011;2801;50.972;7.856;2024-01-06T12:15:32;18.87;;;6.80;;
5555;SDS011;2801;50.972;7.856;2024-01-06T12:18:02;17.50;;;7.57;;
5555;SDS011;2801;50.972;7.856;2024-01-06T12:20:30;16.77;;;7.00;;
5555;SDS011;2801;50.972;7.856;2024-01-06T12:23:00;15.57;;;9.83;;
5555;SDS011;2801;50.972;7.856;2024-01-06T12:25:29;18.03;;;8.70;;
5555;SDS011;2801;50.972;7.856;2024-01-06T12:28:05;19.53;;;8.90;;
5555;SDS011;2801;50.972;7.856;2024-01-06T12:30:33;15.43;;;7.93;;
5555;SDS011;2801;50.972;7.856;2024-01-06T12:33:02;32.07;;;18.33;;
5555;SDS011;2801;50.972;7.856;2024-01-06T12:35:30;21.00;;;12.47;;
5555;SDS011;2801;50.972;7.856;2024-01-06T12:37:58;19.80;;;11.30;;
5555;SDS011;2801;50.972;7.856;2024-01-06T12:40:25;19.93;;;9.73;;
5555;SDS011;2801;50.972;7.856;2024-01-06T12:42:53;18.00;;;9.90;;
5555;SDS011;2801;50.972;7.856;2024-01-06T12:45:20;17.17;;;7.77;;
5555;SDS011;2801;50.972;7.856;2024-01-06T12:47:47;14.40;;;7.57;;
5555;SDS011;2801;50.972;7.856;2024-01-06T12:50:14;14.47;;;6.73;;
5555;SDS011;2801;50.972;7.856;2024-01-06T12:52:41;15.23;;;7.60;;
5555;SDS011;2801;50.972;7.856;2024-01-06T12:55:09;13.70;;;7.27;;
5555;SDS011;2801;50.972;7.856;2024-01-06T12:57:36;11.27;;;6.43;;
5555;SDS011;2801;50.972;7.856;2024-01-06T13:00:04;11.30;;;6.17;;
5555;SDS011;2801;50.972;7.856;2024-01-06T13:02:34;10.90;;;5.53;;
5555;SDS011;2801;50.972;7.856;2024-01-06T13:05:01;14.07;;;7.40;;
5555;SDS011;2801;50.972;7.856;2024-01-06T13:07:28;12.47;;;6.50;;
5555;SDS011;2801;50.972;7.856;2024-01-06T13:09:55;12.43;;;6.53;;
5555;SDS011;2801;50.972;7.856;2024-01-06T13:12:23;12.83;;;6.73;;
5555;SDS011;2801;50.972;7.856;2024-01-06T13:14:51;15.87;;;6.20;;
5555;SDS011;2801;50.972;7.856;2024-01-06T13:17:18;11.77;;;5.50;;
5555;SDS011;2801;50.972;7.856;2024-01-06T13:19:45;10.90;;;5.70;;
5555;SDS011;2801;50.972;7.856;2024-01-06T13:22:12;11.57;;;6.27;;
5555;SDS011;2801;50.972;7.856;2024-01-06T13:24:41;10.03;;;5.40;;
5555;SDS011;2801;50.972;7.856;2024-01-06T13:27:08;12.60;;;6.70;;
5555;SDS011;2801;50.972;7.856;2024-01-06T13:29:35;14.07;;;7.30;;
5555;SDS011;2801;50.972;7.856;2024-01-06T13:32:03;13.37;;;6.97;;
5555;SDS011;2801;50.972;7.856;2024-01-06T13:34:32;14.17;;;7.00;;
5555;SDS011;2801;50.972;7.856;2024-01-06T13:36:59;12.23;;;7.57;;
5555;SDS011;2801;50.972;7.856;2024-01-06T13:39:26;13.63;;;7.10;;
5555;SDS011;2801;50.972;7.856;2024-01-06T13:41:54;14.63;;;7.23;;
5555;SDS011;2801;50.972;7.856;2024-01-06T13:44:21;12.33;;;7.07;;
5555;SDS011;2801;50.972;7.856;2024-01-06T13:46:49;10.90;;;5.97;;
5555;SDS011;2801;50.972;7.856;2024-01-06T13:49:17;14.47;;;7.40;;
5555;SDS011;2801;50.972;7.856;2024-01-06T13:51:45;12.73;;;7.87;;
5555;SDS011;2801;50.972;7.856;2024-01-06T13:54:13;12.93;;;7.50;;
5555;SDS011;2801;50.972;7.856;2024-01-06T13:56:44;11.33;;;6.60;;
5555;SDS011;2801;50.972;7.856;2024-01-06T13:59:12;12.13;;;6.13;;
5555;SDS011;2801;50.972;7.856;2024-01-06T14:01:39;21.13;;;13.20;;
5555;SDS011;2801;50.972;7.856;2024-01-06T14:04:07;11.73;;;6.57;;
5555;SDS011;2801;50.972;7.856;2024-01-06T14:06:34;11.23;;;5.93;;
5555;SDS011;2801;50.972;7.856;2024-01-06T14:09:01;11.47;;;6.73;;
5555;SDS011;2801;50.972;7.856;2024-01-06T14:11:28;13.33;;;6.43;;
5555;SDS011;2801;50.972;7.856;2024-01-06T14:13:57;11.93;;;5.90;;
5555;SDS011;2801;50.972;7.856;2024-01-06T14:16:25;15.80;;;8.03;;
5555;SDS011;2801;50.972;7.856;2024-01-06T14:18:52;15.20;;;6.93;;
5555;SDS011;2801;50.972;7.856;2024-01-06T14:21:20;12.63;;;7.20;;
5555;SDS011;2801;50.972;7.856;2024-01-06T14:23:47;13.93;;;6.60;;
5555;SDS011;2801;50.972;7.856;2024-01-06T14:26:19;15.30;;;6.80;;
5555;SDS011;2801;50.972;7.856;2024-01-06T14:28:47;14.80;;;7.73;;
5555;SDS011;2801;50.972;7.856;2024-01-06T14:31:15;13.60;;;7.20;;
5555;SDS011;2801;50.972;7.856;2024-01-06T14:33:44;13.07;;;6.30;;
5555;SDS011;2801;50.972;7.856;2024-01-06T14:36:12;13.07;;;7.00;;
5555;SDS011;2801;50.972;7.856;2024-01-06T14:38:39;14.43;;;7.07;;
5555;SDS011;2801;50.972;7.856;2024-01-06T14:41:06;12.70;;;6.87;;
5555;SDS011;2801;50.972;7.856;2024-01-06T14:43:33;14.17;;;7.07;;
5555;SDS011;2801;50.972;7.856;2024-01-06T14:46:00;12.53;;;6.63;;
5555;SDS011;2801;50.972;7.856;2024-01-06T14:48:28;16.23;;;8.10;;
5555;SDS011;2801;50.972;7.856;2024-01-06T14:50:55;29.93;;;14.57;;
5555;SDS011;2801;50.972;7.856;2024-01-06T14:53:22;13.83;;;7.17;;
5555;SDS011;2801;50.972;7.856;2024-01-06T14:55:49;19.07;;;11.50;;
5555;SDS011;2801;50.972;7.856;2024-01-06T14:58:16;17.50;;;11.00;;
5555;SDS011;2801;50.972;7.856;2024-01-06T15:00:44;17.53;;;9.20;;
5555;SDS011;2801;50.972;7.856;2024-01-06T15:03:11;17.80;;;9.37;;
5555;SDS011;2801;50.972;7.856;2024-01-06T15:05:38;14.27;;;6.87;;
5555;SDS011;2801;50.972;7.856;2024-01-06T15:08:06;13.60;;;8.47;;
5555;SDS011;2801;50.972;7.856;2024-01-06T15:10:33;12.93;;;6.63;;
5555;SDS011;2801;50.972;7.856;2024-01-06T15:13:00;13.07;;;6.90;;
5555;SDS011;2801;50.972;7.856;2024-01-06T15:15:30;16.87;;;7.90;;